NCAR-RAP Real-Time Weather Data

Output produced by METARs form (08 May 2021  01:04 UTC)
found at http://weather.rap.ucar.edu/surface/
 
KMSN 080053Z 33004KT 10SM BKN070 08/M03 A3005 RMK AO2 SLP182 T00781028
KMSN 072353Z 34006KT 10SM BKN070 BKN090 09/M03 A3005 RMK AO2 SLP180 T00891028 10111 20083 57001
KMSN 072253Z 35006G16KT 10SM FEW050 BKN070 BKN090 09/M04 A3005 RMK AO2 SLP180 T00941039
KMSN 072153Z 33008G17KT 10SM FEW050 BKN065 11/M03 A3005 RMK AO2 SLP180 T01061033
KMSN 072053Z 33009KT 10SM OVC065 10/M03 A3005 RMK AO2 SLP180 T01001033 53006
KMSN 071953Z 33013G23KT 10SM FEW055 BKN070 10/M03 A3005 RMK AO2 SLP178 T01001033
KMSN 071853Z 34007G17KT 300V020 10SM FEW055 BKN065 11/M03 A3003 RMK AO2 SLP174 T01061028
KMSN 071753Z 34012G21KT 10SM BKN060 10/M02 A3003 RMK AO2 SLP173 T01001022 10117 20067 51006
KMSN 071653Z 35014G21KT 10SM BKN050 10/M02 A3003 RMK AO2 PK WND 32026/1642 SLP173 T01001022
KMSN 071553Z 32011G19KT 10SM BKN040 09/M01 A3003 RMK AO2 SLP172 T00891011
KMSN 071453Z 34015G23KT 10SM BKN032 09/00 A3001 RMK AO2 SLP168 T00940000 51005
KMSN 071353Z 33006G17KT 10SM FEW025 08/02 A3001 RMK AO2 SLP166 T00830017
KMSN 071253Z 35009G17KT 10SM SCT022 08/03 A3001 RMK AO2 SLP165 T00780028
KMSN 071153Z 31004KT 10SM FEW060 07/03 A3000 RMK AO2 SLP162 T00670033 10089 20056 53009
KMSN 071053Z 32005KT 10SM FEW018 FEW070 06/02 A2998 RMK AO2 SLP156 T00610022